Macksburg, Iowa
Current Conditions -  °F | °C
As of 3:55 AM on Friday 28 Nov 2014 (Local Time) from KCSQ Reporting Station
Clear Clear  
Wind Chill: 11°   Ceiling: Unl
Heat Index: 25°   Visibility: 10mi
Dew Point: 21°   Wind: 18mph
Humidity: 86%   Direction: 170°S
Pressure: 30.02"   Gusts: NA
Location:  41.21°N, 94.19°W
Report Text: KCSQ 280955Z AUTO 17016KT 10SM CLR M04/M06 A3002 RMK AO2
Loading
Personal Weather Stations






























Interactive Weather Map New forecast layout! Learn more

10-Day Weather Forecast

Advertisements
Track Severe Weather on mobile